createdAt,value
2019-05-20T00:00:07.899Z,17.40
2019-05-20T00:01:07.888Z,17.20
2019-05-20T00:02:23.097Z,16.90
2019-05-20T00:03:08.897Z,17.80
2019-05-20T00:04:07.854Z,15.30
2019-05-20T00:05:07.846Z,16.20
2019-05-20T00:06:08.161Z,14.90
2019-05-20T00:07:07.843Z,14.70
2019-05-20T00:08:07.821Z,15.30
2019-05-20T00:09:07.800Z,16.20
2019-05-20T00:10:07.788Z,15.10
2019-05-20T00:11:07.804Z,15.10
2019-05-20T00:12:07.763Z,15.30
2019-05-20T00:13:07.753Z,17.70
2019-05-20T00:14:07.739Z,16.10
2019-05-20T00:15:07.756Z,14.70
2019-05-20T00:16:07.726Z,16.80
2019-05-20T00:17:07.712Z,14.20
2019-05-20T00:18:07.695Z,16.60
2019-05-20T00:19:07.707Z,14.30
2019-05-20T00:20:07.681Z,13.80
2019-05-20T00:21:07.671Z,17.40
2019-05-20T00:22:07.657Z,15.60
2019-05-20T00:23:07.668Z,16.00
2019-05-20T00:24:07.633Z,16.90
2019-05-20T00:25:07.638Z,16.10
2019-05-20T00:26:07.604Z,17.00
2019-05-20T00:27:07.594Z,16.90
2019-05-20T00:28:07.583Z,15.70
2019-05-20T00:29:07.570Z,17.60
2019-05-20T00:30:07.581Z,17.30
2019-05-20T00:31:07.547Z,15.90
2019-05-20T00:32:07.546Z,15.30
2019-05-20T00:33:07.527Z,13.90
2019-05-20T00:34:07.529Z,14.20
2019-05-20T00:35:07.509Z,15.00
2019-05-20T00:36:07.506Z,16.80
2019-05-20T00:37:07.479Z,16.20
2019-05-20T00:38:07.521Z,15.70
2019-05-20T00:39:07.459Z,16.90
2019-05-20T00:40:07.450Z,16.10
2019-05-20T00:41:07.440Z,15.00
2019-05-20T00:42:07.451Z,16.10
2019-05-20T00:43:07.441Z,17.90
2019-05-20T00:44:07.412Z,14.90
2019-05-20T00:45:07.419Z,14.80
2019-05-20T00:46:07.377Z,15.50
2019-05-20T00:47:07.373Z,15.60
2019-05-20T00:48:07.385Z,15.30
2019-05-20T00:49:07.361Z,16.80
2019-05-20T00:50:07.346Z,16.40
2019-05-20T00:51:07.321Z,15.90
2019-05-20T00:52:07.311Z,15.80
2019-05-20T00:53:07.340Z,15.70
2019-05-20T00:54:07.290Z,19.20
2019-05-20T00:55:07.278Z,15.90
2019-05-20T00:56:07.266Z,15.90
2019-05-20T00:57:07.257Z,17.20
2019-05-20T00:58:07.268Z,17.60
2019-05-20T00:59:07.234Z,18.80
2019-05-20T01:00:07.234Z,17.60
2019-05-20T01:01:07.211Z,18.60
2019-05-20T01:02:07.199Z,17.50
2019-05-20T01:03:07.208Z,18.70
2019-05-20T01:04:07.177Z,18.30
2019-05-20T01:05:07.163Z,18.20
2019-05-20T01:06:07.154Z,18.60
2019-05-20T01:07:07.140Z,18.20
2019-05-20T01:08:07.168Z,17.70
2019-05-20T01:09:07.120Z,19.20
2019-05-20T01:10:07.172Z,16.90
2019-05-20T01:11:07.098Z,17.00
2019-05-20T01:12:07.093Z,17.70
2019-05-20T01:13:07.072Z,18.40
2019-05-20T01:14:07.067Z,18.50
2019-05-20T01:15:07.088Z,19.60
2019-05-20T01:16:07.063Z,20.20
2019-05-20T01:17:07.026Z,17.30
2019-05-20T01:18:07.015Z,19.90
2019-05-20T01:19:07.007Z,19.70
2019-05-20T01:20:07.022Z,17.70
2019-05-20T01:21:06.986Z,17.60
2019-05-20T01:22:06.970Z,19.50
2019-05-20T01:23:06.966Z,18.30
2019-05-20T01:24:06.981Z,19.20
2019-05-20T01:25:06.938Z,18.60
2019-05-20T01:26:06.927Z,19.00
2019-05-20T01:27:06.912Z,18.80
2019-05-20T01:28:06.926Z,17.70
2019-05-20T01:29:07.790Z,16.60
2019-05-20T01:30:06.882Z,15.50
2019-05-20T01:31:06.898Z,19.60
2019-05-20T01:32:06.858Z,18.30
2019-05-20T01:33:13.712Z,19.40
2019-05-20T01:34:07.861Z,18.40
2019-05-20T01:35:06.847Z,20.20
2019-05-20T01:36:06.851Z,18.90
2019-05-20T01:37:06.799Z,18.40
2019-05-20T01:38:06.798Z,20.30
2019-05-20T01:39:06.782Z,20.10
2019-05-20T01:40:06.782Z,17.80
2019-05-20T01:41:06.777Z,19.50
2019-05-20T01:42:06.745Z,21.20
2019-05-20T01:43:06.736Z,18.60
2019-05-20T01:44:06.721Z,19.00
2019-05-20T01:45:06.716Z,18.90
2019-05-20T01:46:06.731Z,18.20
2019-05-20T01:47:06.691Z,18.90
2019-05-20T01:48:06.680Z,17.80
2019-05-20T01:49:06.720Z,20.00
2019-05-20T01:50:06.679Z,19.80
2019-05-20T01:51:06.648Z,18.40
2019-05-20T01:52:06.640Z,17.10
2019-05-20T01:53:06.620Z,17.70
2019-05-20T01:54:06.626Z,18.40
2019-05-20T01:55:06.621Z,19.20
2019-05-20T01:56:06.590Z,18.20
2019-05-20T01:57:06.601Z,17.30
2019-05-20T01:58:06.567Z,19.60
2019-05-20T01:59:06.559Z,18.80
2019-05-20T02:00:06.547Z,18.70
2019-05-20T02:01:06.576Z,18.70
2019-05-20T02:02:06.521Z,18.40
2019-05-20T02:03:06.512Z,17.80
2019-05-20T02:04:06.500Z,17.50
2019-05-20T02:05:06.489Z,18.40
2019-05-20T02:06:06.503Z,18.10
2019-05-20T02:07:06.493Z,17.00
2019-05-20T02:08:06.459Z,18.60
2019-05-20T02:09:06.442Z,17.10
2019-05-20T02:10:06.436Z,18.30
2019-05-20T02:11:06.445Z,16.00
2019-05-20T02:12:06.410Z,18.80
2019-05-20T02:13:06.397Z,18.60
2019-05-20T02:14:06.390Z,18.70
2019-05-20T02:15:06.373Z,17.00
2019-05-20T02:16:06.392Z,19.20
2019-05-20T02:17:06.379Z,17.20
2019-05-20T02:18:06.343Z,18.90
2019-05-20T02:19:06.344Z,17.30
2019-05-20T02:20:06.482Z,17.00
2019-05-20T02:21:06.321Z,18.20
2019-05-20T02:22:06.298Z,18.70
2019-05-20T02:23:06.285Z,18.50
2019-05-20T02:24:06.300Z,17.50
2019-05-20T02:25:06.260Z,17.00
2019-05-20T02:26:06.261Z,16.90
2019-05-20T02:27:06.250Z,16.80
2019-05-20T02:28:06.228Z,17.70
2019-05-20T02:29:06.280Z,17.40
2019-05-20T02:30:06.220Z,18.80
2019-05-20T02:31:06.224Z,19.20
2019-05-20T02:32:06.186Z,19.50
2019-05-20T02:33:06.179Z,18.50
2019-05-20T02:34:06.161Z,20.70
2019-05-20T02:35:06.154Z,19.10
2019-05-20T02:36:06.168Z,18.90
2019-05-20T02:37:06.149Z,17.50
2019-05-20T02:38:06.125Z,18.70
2019-05-20T02:39:06.108Z,17.20
2019-05-20T02:40:06.096Z,18.10
2019-05-20T02:41:06.083Z,20.50
2019-05-20T02:42:06.110Z,19.70
2019-05-20T02:43:06.058Z,18.00
2019-05-20T02:44:06.060Z,20.10
2019-05-20T02:45:06.037Z,20.50
2019-05-20T02:46:06.039Z,21.40
2019-05-20T02:47:06.037Z,20.20
2019-05-20T02:48:06.006Z,21.00
2019-05-20T02:49:05.995Z,19.80
2019-05-20T02:50:05.979Z,19.30
2019-05-20T02:51:05.991Z,21.30
2019-05-20T02:52:05.958Z,20.90
2019-05-20T02:53:05.947Z,23.80
2019-05-20T02:54:05.950Z,21.50
2019-05-20T02:55:05.923Z,19.90
2019-05-20T02:56:05.933Z,20.50
2019-05-20T02:57:05.904Z,20.10
2019-05-20T02:58:05.891Z,20.40
2019-05-20T02:59:05.879Z,21.20
2019-05-20T03:00:05.870Z,20.80
2019-05-20T03:01:05.879Z,22.10
2019-05-20T03:02:05.848Z,20.50
2019-05-20T03:03:05.838Z,20.20
2019-05-20T03:04:12.272Z,19.90
2019-05-20T03:05:06.811Z,21.40
2019-05-20T03:06:05.825Z,20.20
2019-05-20T03:07:05.795Z,20.50
2019-05-20T03:08:05.783Z,20.30
2019-05-20T03:09:05.776Z,21.30
2019-05-20T03:10:05.780Z,21.80
2019-05-20T03:11:05.770Z,20.90
2019-05-20T03:12:05.734Z,19.90
2019-05-20T03:13:05.725Z,21.50
2019-05-20T03:14:05.710Z,23.80
2019-05-20T03:15:05.700Z,23.90
2019-05-20T03:16:05.722Z,25.30
2019-05-20T03:17:05.738Z,23.30
2019-05-20T03:18:05.680Z,21.20
2019-05-20T03:19:05.656Z,20.90
2019-05-20T03:20:05.717Z,21.10
2019-05-20T03:21:05.665Z,22.90
2019-05-20T03:22:05.638Z,21.90
2019-05-20T03:23:05.626Z,22.10
2019-05-20T03:24:05.597Z,23.80
2019-05-20T03:25:05.587Z,23.30
2019-05-20T03:26:05.604Z,23.80
2019-05-20T03:27:05.593Z,21.10
2019-05-20T03:28:05.555Z,23.40
2019-05-20T03:29:05.542Z,21.20
2019-05-20T03:30:05.540Z,23.40
2019-05-20T03:31:05.519Z,19.60
2019-05-20T03:32:05.542Z,20.20
2019-05-20T03:33:05.496Z,23.80
2019-05-20T03:34:05.514Z,23.80
2019-05-20T03:35:05.482Z,22.30
2019-05-20T03:36:05.476Z,23.20
2019-05-20T03:37:05.474Z,23.60
2019-05-20T03:38:05.460Z,23.20
2019-05-20T03:39:05.435Z,25.10
2019-05-20T03:40:05.418Z,22.90
2019-05-20T03:41:05.406Z,24.60
2019-05-20T03:42:05.423Z,23.30
2019-05-20T03:43:05.410Z,22.00
2019-05-20T03:44:05.420Z,20.30
2019-05-20T03:45:05.366Z,21.40
2019-05-20T03:46:05.351Z,19.70
2019-05-20T03:47:05.364Z,22.60
2019-05-20T03:48:05.342Z,22.70
2019-05-20T03:49:05.319Z,21.50
2019-05-20T03:50:05.307Z,22.00
2019-05-20T03:51:05.369Z,20.50
2019-05-20T03:52:05.281Z,21.70
2019-05-20T03:53:05.277Z,21.30
2019-05-20T03:54:05.269Z,20.90
2019-05-20T03:55:05.270Z,23.00
2019-05-20T03:56:05.245Z,19.40
2019-05-20T03:57:05.266Z,23.00
2019-05-20T03:58:05.248Z,22.40
2019-05-20T03:59:05.204Z,19.40
2019-05-20T04:00:05.192Z,22.40
2019-05-20T04:01:05.204Z,22.80
2019-05-20T04:02:05.169Z,22.80
2019-05-20T04:03:05.158Z,23.50
2019-05-20T04:04:05.213Z,23.90
2019-05-20T04:05:05.162Z,18.00
2019-05-20T04:06:05.155Z,21.50
2019-05-20T04:07:05.116Z,20.90
2019-05-20T04:08:05.105Z,22.70
2019-05-20T04:09:05.097Z,22.00
2019-05-20T04:10:05.098Z,21.60
2019-05-20T04:11:05.097Z,22.40
2019-05-20T04:12:05.071Z,21.40
2019-05-20T04:13:05.049Z,20.70
2019-05-20T04:14:05.042Z,21.40
2019-05-20T04:15:05.083Z,22.90
2019-05-20T04:16:05.015Z,22.70
2019-05-20T04:17:05.001Z,20.60
2019-05-20T04:18:04.992Z,19.70
2019-05-20T04:19:04.979Z,19.30
2019-05-20T04:20:04.989Z,18.30
2019-05-20T04:21:04.959Z,20.60
2019-05-20T04:22:04.955Z,21.60
2019-05-20T04:23:04.937Z,19.80
2019-05-20T04:24:04.974Z,19.90
2019-05-20T04:25:04.940Z,18.90
2019-05-20T04:26:04.907Z,18.00
2019-05-20T04:27:04.888Z,19.60
2019-05-20T04:28:04.926Z,22.20
2019-05-20T04:29:04.878Z,18.60
2019-05-20T04:30:04.855Z,20.10
2019-05-20T04:31:04.858Z,19.00
2019-05-20T04:32:04.832Z,18.30
2019-05-20T04:33:04.850Z,19.60
2019-05-20T04:34:04.825Z,20.10
2019-05-20T04:35:20.793Z,19.10
2019-05-20T04:36:05.810Z,18.20
2019-05-20T04:37:04.832Z,19.50
2019-05-20T04:38:04.795Z,19.90
2019-05-20T04:39:04.766Z,18.30
2019-05-20T04:40:04.774Z,19.30
2019-05-20T04:41:04.729Z,19.50
2019-05-20T04:42:06.660Z,20.40
2019-05-20T04:43:04.719Z,21.00
2019-05-20T04:44:04.734Z,16.80
2019-05-20T04:45:04.686Z,17.20
2019-05-20T04:46:04.677Z,18.70
2019-05-20T04:47:04.665Z,19.00
2019-05-20T04:48:04.672Z,18.80
2019-05-20T04:49:04.662Z,18.80
2019-05-20T04:50:04.646Z,19.00
2019-05-20T04:51:04.651Z,19.20
2019-05-20T04:52:04.606Z,19.50
2019-05-20T04:53:04.604Z,18.50
2019-05-20T04:54:04.583Z,18.00
2019-05-20T04:55:04.581Z,19.40
2019-05-20T04:56:04.585Z,18.70
2019-05-20T04:57:04.553Z,19.10
2019-05-20T04:58:04.539Z,19.30
2019-05-20T04:59:04.542Z,20.10
2019-05-20T05:00:04.548Z,17.40
2019-05-20T05:01:04.538Z,17.70
2019-05-20T05:02:04.495Z,18.00
2019-05-20T05:03:04.493Z,17.20
2019-05-20T05:04:04.471Z,19.10
2019-05-20T05:05:04.466Z,18.00
2019-05-20T05:06:04.475Z,18.50
2019-05-20T05:07:04.441Z,17.90
2019-05-20T05:08:04.427Z,18.30
2019-05-20T05:09:04.463Z,16.90
2019-05-20T05:10:04.403Z,17.90
2019-05-20T05:11:04.426Z,19.00
2019-05-20T05:12:04.381Z,16.60
2019-05-20T05:13:04.373Z,16.70
2019-05-20T05:14:04.376Z,17.70
2019-05-20T05:15:07.788Z,18.80
2019-05-20T05:16:04.360Z,18.00
2019-05-20T05:17:04.327Z,18.30
2019-05-20T05:18:04.319Z,17.30
2019-05-20T05:19:04.328Z,18.50
2019-05-20T05:20:04.316Z,18.50
2019-05-20T05:21:04.279Z,18.90
2019-05-20T05:22:04.271Z,18.00
2019-05-20T05:23:04.263Z,18.60
2019-05-20T05:24:04.243Z,17.90
2019-05-20T05:25:04.254Z,18.50
2019-05-20T05:26:04.221Z,18.00
2019-05-20T05:27:04.223Z,17.70
2019-05-20T05:28:04.220Z,17.30
2019-05-20T05:29:04.194Z,17.00
2019-05-20T05:30:04.203Z,16.60
2019-05-20T05:31:04.174Z,18.30
2019-05-20T05:32:04.158Z,17.60
2019-05-20T05:33:04.148Z,20.10
2019-05-20T05:34:04.157Z,17.20
2019-05-20T05:35:04.122Z,18.60
2019-05-20T05:36:04.117Z,17.70
2019-05-20T05:37:04.100Z,18.50
2019-05-20T05:38:04.147Z,19.10
2019-05-20T05:39:04.101Z,19.00
2019-05-20T05:40:07.918Z,18.50
2019-05-20T05:41:04.077Z,17.90
2019-05-20T05:42:04.054Z,18.10
2019-05-20T05:43:04.040Z,18.10
2019-05-20T05:44:04.043Z,17.60
2019-05-20T05:45:04.034Z,17.90
2019-05-20T05:46:04.115Z,17.80
2019-05-20T05:47:04.020Z,17.30
2019-05-20T05:48:03.973Z,17.90
2019-05-20T05:49:03.962Z,18.10
2019-05-20T05:50:03.988Z,16.40
2019-05-20T05:51:03.941Z,16.80
2019-05-20T05:52:03.931Z,17.10
2019-05-20T05:53:03.918Z,16.30
2019-05-20T05:54:03.923Z,15.70
2019-05-20T05:55:03.894Z,16.80
2019-05-20T05:56:03.884Z,16.70
2019-05-20T05:57:03.874Z,15.50
2019-05-20T05:58:03.867Z,15.50
2019-05-20T05:59:03.879Z,15.60
2019-05-20T06:00:03.842Z,15.30
2019-05-20T06:01:03.833Z,16.20
2019-05-20T06:02:03.839Z,16.20
2019-05-20T06:03:03.833Z,16.00
2019-05-20T06:04:03.805Z,15.00
2019-05-20T06:05:03.782Z,15.80
2019-05-20T06:06:12.076Z,18.40
2019-05-20T06:07:04.760Z,15.60
2019-05-20T06:08:03.773Z,16.20
2019-05-20T06:09:03.753Z,15.70
2019-05-20T06:10:03.731Z,16.20
2019-05-20T06:11:03.735Z,15.80
2019-05-20T06:12:03.704Z,16.70
2019-05-20T06:13:04.090Z,16.30
2019-05-20T06:14:03.708Z,16.30
2019-05-20T06:15:03.669Z,17.20
2019-05-20T06:16:03.658Z,16.10
2019-05-20T06:17:03.665Z,17.40
2019-05-20T06:18:03.636Z,16.60
2019-05-20T06:19:03.656Z,17.90
2019-05-20T06:20:03.618Z,20.60
2019-05-20T06:21:03.625Z,16.90
2019-05-20T06:22:03.629Z,16.60
2019-05-20T06:23:03.578Z,16.20
2019-05-20T06:24:03.787Z,16.90
2019-05-20T06:25:03.789Z,17.20
2019-05-20T06:26:03.546Z,16.40
2019-05-20T06:27:03.534Z,16.30
2019-05-20T06:28:03.528Z,16.40
2019-05-20T06:29:03.554Z,15.60
2019-05-20T06:30:03.503Z,16.80
2019-05-20T06:31:03.518Z,16.80
2019-05-20T06:32:03.480Z,16.20
2019-05-20T06:33:03.466Z,16.40
2019-05-20T06:34:03.457Z,16.20
2019-05-20T06:35:03.481Z,17.70
2019-05-20T06:36:03.451Z,16.90
2019-05-20T06:37:03.422Z,16.80
2019-05-20T06:38:03.442Z,17.50
2019-05-20T06:39:03.447Z,15.80
2019-05-20T06:40:03.396Z,15.60
2019-05-20T06:41:03.377Z,16.20
2019-05-20T06:42:03.392Z,15.90
2019-05-20T06:43:03.364Z,16.20
2019-05-20T06:44:03.344Z,17.10
2019-05-20T06:45:03.337Z,17.60
2019-05-20T06:46:03.347Z,16.80
2019-05-20T06:47:03.309Z,17.40
2019-05-20T06:48:03.312Z,16.20
2019-05-20T06:49:03.289Z,16.50
2019-05-20T06:50:03.298Z,17.10
2019-05-20T06:51:03.299Z,18.40
2019-05-20T06:52:03.256Z,17.60
2019-05-20T06:53:03.243Z,17.80
2019-05-20T06:54:03.253Z,17.20
2019-05-20T06:55:03.219Z,16.20
2019-05-20T06:56:03.242Z,18.40
2019-05-20T06:57:03.213Z,18.00
2019-05-20T06:58:03.191Z,17.10
2019-05-20T06:59:03.175Z,17.60
2019-05-20T07:00:03.166Z,16.70
2019-05-20T07:01:03.172Z,17.60
2019-05-20T07:02:03.151Z,17.00
2019-05-20T07:03:03.154Z,16.00
2019-05-20T07:04:03.131Z,17.20
2019-05-20T07:05:03.134Z,18.20
2019-05-20T07:06:03.109Z,16.60
2019-05-20T07:07:12.412Z,18.10
2019-05-20T07:08:04.070Z,18.70
2019-05-20T07:09:03.064Z,17.90
2019-05-20T07:10:03.105Z,17.20
2019-05-20T07:11:03.047Z,17.90
2019-05-20T07:12:03.034Z,17.70
2019-05-20T07:13:03.039Z,17.80
2019-05-20T07:14:03.028Z,16.80
2019-05-20T07:15:03.059Z,16.60
2019-05-20T07:16:02.983Z,16.60
2019-05-20T07:17:03.044Z,17.40
2019-05-20T07:18:02.961Z,18.00
2019-05-20T07:19:02.986Z,18.30
2019-05-20T07:20:02.939Z,17.60
2019-05-20T07:21:02.968Z,17.80
2019-05-20T07:22:02.917Z,18.20
2019-05-20T07:23:03.809Z,19.40
2019-05-20T07:24:02.907Z,18.90
2019-05-20T07:25:02.901Z,18.30
2019-05-20T07:26:02.894Z,19.20
2019-05-20T07:27:02.860Z,17.80
2019-05-20T07:28:02.868Z,18.20
2019-05-20T07:29:02.836Z,18.40
2019-05-20T07:30:02.830Z,18.40
2019-05-20T07:31:02.843Z,18.40
2019-05-20T07:32:02.812Z,18.20
2019-05-20T07:33:02.796Z,19.50
2019-05-20T07:34:02.876Z,17.80
2019-05-20T07:35:02.770Z,18.70
2019-05-20T07:36:02.782Z,19.50
2019-05-20T07:37:04.110Z,19.10
2019-05-20T07:38:02.755Z,18.60
2019-05-20T07:39:02.726Z,17.70
2019-05-20T07:40:02.714Z,20.40
2019-05-20T07:41:02.743Z,19.10
2019-05-20T07:42:02.697Z,19.20
2019-05-20T07:43:02.693Z,19.30
2019-05-20T07:44:02.952Z,19.10
2019-05-20T07:45:02.830Z,19.20
2019-05-20T07:46:02.677Z,20.70
2019-05-20T07:47:02.656Z,18.90
2019-05-20T07:48:02.626Z,18.40
2019-05-20T07:49:02.825Z,19.20
2019-05-20T07:50:02.603Z,19.10
2019-05-20T07:51:02.621Z,17.30
2019-05-20T07:52:02.588Z,19.70
2019-05-20T07:53:02.569Z,18.70
2019-05-20T07:54:02.631Z,18.60
2019-05-20T07:55:02.546Z,18.00
2019-05-20T07:56:02.724Z,17.80
2019-05-20T07:57:02.523Z,17.50
2019-05-20T07:58:02.514Z,18.80
2019-05-20T07:59:02.551Z,18.70
2019-05-20T08:00:02.494Z,19.10
2019-05-20T08:01:02.510Z,18.00
2019-05-20T08:02:02.475Z,18.30
2019-05-20T08:03:02.458Z,19.30
2019-05-20T08:04:02.476Z,18.70
2019-05-20T08:05:02.895Z,17.30
2019-05-20T08:06:02.433Z,16.70
2019-05-20T08:07:26.217Z,17.90
2019-05-20T08:08:03.422Z,19.50
2019-05-20T08:09:02.392Z,17.50
2019-05-20T08:10:02.380Z,17.80
2019-05-20T08:11:02.373Z,17.80
2019-05-20T08:12:02.380Z,17.00
2019-05-20T08:13:02.376Z,17.70
2019-05-20T08:14:02.342Z,16.50
2019-05-20T08:15:02.324Z,16.40
2019-05-20T08:16:02.317Z,17.40
2019-05-20T08:17:02.306Z,18.70
2019-05-20T08:18:02.309Z,17.00
2019-05-20T08:19:02.276Z,17.60
2019-05-20T08:20:02.317Z,17.00
2019-05-20T08:21:02.257Z,17.60
2019-05-20T08:22:02.242Z,18.30
2019-05-20T08:23:02.475Z,17.20
2019-05-20T08:24:02.599Z,16.90
2019-05-20T08:25:02.210Z,17.90
2019-05-20T08:26:02.218Z,16.60
2019-05-20T08:27:02.186Z,16.90
2019-05-20T08:28:02.235Z,17.10
2019-05-20T08:29:02.165Z,17.80
2019-05-20T08:30:02.156Z,17.70
2019-05-20T08:31:02.195Z,18.10
2019-05-20T08:32:02.127Z,17.50
2019-05-20T08:33:02.142Z,17.60
2019-05-20T08:34:02.107Z,16.40
2019-05-20T08:35:02.098Z,18.00
2019-05-20T08:36:02.086Z,17.10
2019-05-20T08:37:02.110Z,18.00
2019-05-20T08:38:02.086Z,18.70
2019-05-20T08:39:02.066Z,17.90
2019-05-20T08:40:02.040Z,17.10
2019-05-20T08:41:02.053Z,17.30
2019-05-20T08:42:02.035Z,17.50
2019-05-20T08:43:02.030Z,20.60
2019-05-20T08:44:01.994Z,17.70
2019-05-20T08:45:02.444Z,19.00
2019-05-20T08:46:01.973Z,18.40
2019-05-20T08:47:02.105Z,19.40
2019-05-20T08:48:01.954Z,18.60
2019-05-20T08:49:01.967Z,19.10
2019-05-20T08:50:04.558Z,19.10
2019-05-20T08:51:01.918Z,17.30
2019-05-20T08:52:01.907Z,17.40
2019-05-20T08:53:01.921Z,19.60
2019-05-20T08:54:01.885Z,18.70
2019-05-20T08:55:02.677Z,19.60
2019-05-20T08:56:01.874Z,17.50
2019-05-20T08:57:01.872Z,16.90
2019-05-20T08:58:01.867Z,16.70
2019-05-20T08:59:01.831Z,16.40
2019-05-20T09:00:02.358Z,16.10
2019-05-20T09:01:01.844Z,16.10
2019-05-20T09:02:01.827Z,15.50
2019-05-20T09:03:01.784Z,15.20
2019-05-20T09:04:01.805Z,15.70
2019-05-20T09:05:01.763Z,16.80
2019-05-20T09:06:01.799Z,16.20
2019-05-20T09:07:01.857Z,15.90
2019-05-20T09:08:03.793Z,15.30
2019-05-20T09:09:01.719Z,14.80
2019-05-20T09:10:01.743Z,14.80
2019-05-20T09:11:01.723Z,14.90
2019-05-20T09:12:01.687Z,15.60
2019-05-20T09:13:01.703Z,15.80
2019-05-20T09:14:01.665Z,16.40
2019-05-20T09:15:01.658Z,15.60
2019-05-20T09:16:01.655Z,14.70
2019-05-20T09:17:01.629Z,15.50
2019-05-20T09:18:01.620Z,14.50
2019-05-20T09:19:01.607Z,16.20
2019-05-20T09:20:01.931Z,17.20
2019-05-20T09:21:01.587Z,15.10
2019-05-20T09:22:01.601Z,15.30
2019-05-20T09:23:02.790Z,15.60
2019-05-20T09:24:01.561Z,14.20
2019-05-20T09:25:01.692Z,15.90
2019-05-20T09:26:01.560Z,16.60
2019-05-20T09:27:01.529Z,15.20
2019-05-20T09:28:01.513Z,17.60
2019-05-20T09:29:01.530Z,16.50
2019-05-20T09:30:02.150Z,15.30
2019-05-20T09:31:01.479Z,16.50
2019-05-20T09:32:01.463Z,17.60
2019-05-20T09:33:01.450Z,16.10
2019-05-20T09:34:01.484Z,16.40
2019-05-20T09:35:01.438Z,16.80
2019-05-20T09:36:01.443Z,16.70
2019-05-20T09:37:01.409Z,17.80
2019-05-20T09:38:01.397Z,17.20
2019-05-20T09:39:01.415Z,16.70
2019-05-20T09:40:01.398Z,17.30
2019-05-20T09:41:01.365Z,16.70
2019-05-20T09:42:01.364Z,16.90
2019-05-20T09:43:01.394Z,15.50
2019-05-20T09:44:01.335Z,15.60
2019-05-20T09:45:03.190Z,14.70
2019-05-20T09:46:07.365Z,14.70
2019-05-20T09:47:02.299Z,14.50
2019-05-20T09:48:01.314Z,13.80
2019-05-20T09:49:01.277Z,14.50
2019-05-20T09:50:01.295Z,14.00
2019-05-20T09:51:01.612Z,14.80
2019-05-20T09:52:01.245Z,13.90
2019-05-20T09:53:06.298Z,14.70
2019-05-20T09:54:02.226Z,14.90
2019-05-20T09:55:01.209Z,14.20
2019-05-20T09:56:01.211Z,15.00
2019-05-20T09:57:01.187Z,16.10
2019-05-20T09:58:01.200Z,16.10
2019-05-20T09:59:01.166Z,15.80
2019-05-20T10:00:01.492Z,15.20
2019-05-20T10:01:01.144Z,15.60
2019-05-20T10:02:01.135Z,15.80
2019-05-20T10:03:01.295Z,17.20
2019-05-20T10:04:01.109Z,15.90
2019-05-20T10:05:01.124Z,16.20
2019-05-20T10:06:01.252Z,16.10
2019-05-20T10:07:01.091Z,14.50
2019-05-20T10:08:01.094Z,16.00
2019-05-20T10:09:01.064Z,14.40
2019-05-20T10:10:01.043Z,15.40
2019-05-20T10:11:01.495Z,15.20
2019-05-20T10:12:01.023Z,14.60
2019-05-20T10:13:01.067Z,13.90
2019-05-20T10:14:00.999Z,15.20
2019-05-20T10:15:00.998Z,14.80
2019-05-20T10:16:00.985Z,16.00
2019-05-20T10:17:01.036Z,14.00
2019-05-20T10:18:00.991Z,14.20
2019-05-20T10:19:00.944Z,14.90
2019-05-20T10:20:00.979Z,13.80
2019-05-20T10:21:00.929Z,14.80
2019-05-20T10:22:00.913Z,15.60
2019-05-20T10:23:00.924Z,14.70
2019-05-20T10:24:00.888Z,14.30
2019-05-20T10:25:00.877Z,14.90
2019-05-20T10:26:00.871Z,14.30
2019-05-20T10:27:00.858Z,14.70
2019-05-20T10:28:00.867Z,15.20
2019-05-20T10:29:00.833Z,14.00
2019-05-20T10:30:00.822Z,14.60
2019-05-20T10:31:00.838Z,15.50
2019-05-20T10:32:00.806Z,14.90
2019-05-20T10:33:00.805Z,14.90
2019-05-20T10:34:00.803Z,15.60
2019-05-20T10:35:00.768Z,15.70
2019-05-20T10:36:00.757Z,15.20
2019-05-20T10:37:00.767Z,15.50
2019-05-20T10:38:00.764Z,14.30
2019-05-20T10:39:00.725Z,15.20
2019-05-20T10:40:00.738Z,14.60
2019-05-20T10:41:00.735Z,16.00
2019-05-20T10:42:00.695Z,14.30
2019-05-20T10:43:00.709Z,14.40
2019-05-20T10:44:00.668Z,15.60
2019-05-20T10:45:00.677Z,15.90
2019-05-20T10:46:00.646Z,15.80
2019-05-20T10:47:00.656Z,15.30
2019-05-20T10:48:00.654Z,14.80
2019-05-20T10:49:00.613Z,14.50
2019-05-20T10:50:00.625Z,16.00
2019-05-20T10:51:00.614Z,16.10
2019-05-20T10:52:00.582Z,16.30
2019-05-20T10:53:00.569Z,14.60
2019-05-20T10:54:00.576Z,15.80
2019-05-20T10:55:00.577Z,16.40
2019-05-20T10:56:01.007Z,15.60
2019-05-20T10:57:00.526Z,14.80
2019-05-20T10:58:00.549Z,16.20
2019-05-20T10:59:00.526Z,16.10
2019-05-20T11:00:00.522Z,16.50
2019-05-20T11:01:03.303Z,16.30
2019-05-20T11:02:00.472Z,15.60
2019-05-20T11:03:00.460Z,14.30
2019-05-20T11:04:00.464Z,15.10
2019-05-20T11:05:00.453Z,16.00
2019-05-20T11:06:00.428Z,15.70
2019-05-20T11:07:00.423Z,15.90
2019-05-20T11:08:00.437Z,16.20
2019-05-20T11:09:13.179Z,17.20
2019-05-20T11:10:01.413Z,16.80
2019-05-20T11:11:00.379Z,17.10
2019-05-20T11:12:00.364Z,15.50
2019-05-20T11:13:00.355Z,15.70
2019-05-20T11:14:00.344Z,15.10
2019-05-20T11:15:00.326Z,15.50
2019-05-20T11:16:00.361Z,15.90
2019-05-20T11:17:00.310Z,16.20
2019-05-20T11:18:00.297Z,15.00
2019-05-20T11:19:00.306Z,16.40
2019-05-20T11:20:00.298Z,15.10
2019-05-20T11:21:00.286Z,16.90
2019-05-20T11:22:00.254Z,18.30
2019-05-20T11:23:01.257Z,17.80
2019-05-20T11:24:00.235Z,15.90
2019-05-20T11:25:00.215Z,18.00
2019-05-20T11:26:00.226Z,16.10
2019-05-20T11:27:00.229Z,18.10
2019-05-20T11:28:00.468Z,17.10
2019-05-20T11:29:00.169Z,17.40
2019-05-20T11:30:00.157Z,16.20
2019-05-20T11:31:00.170Z,16.10
2019-05-20T11:32:00.135Z,15.40
2019-05-20T11:33:00.126Z,15.00
2019-05-20T11:34:00.130Z,16.00
2019-05-20T11:35:00.107Z,16.30
2019-05-20T11:36:00.119Z,16.00
2019-05-20T11:37:00.080Z,16.60
2019-05-20T11:38:00.068Z,16.80
2019-05-20T11:39:00.068Z,16.10
2019-05-20T11:40:00.058Z,16.30
2019-05-20T11:41:00.073Z,15.90
2019-05-20T11:42:00.020Z,15.80
2019-05-20T11:43:00.012Z,14.20
2019-05-20T11:44:00.002Z,14.90
2019-05-20T11:44:59.997Z,15.00
2019-05-20T11:46:00.039Z,15.50
2019-05-20T11:46:59.992Z,14.40
2019-05-20T11:47:59.958Z,16.40
2019-05-20T11:48:59.963Z,14.80
2019-05-20T11:49:59.930Z,15.90
2019-05-20T11:50:59.922Z,15.80
2019-05-20T11:51:59.932Z,15.80
2019-05-20T11:52:59.945Z,16.10
2019-05-20T11:53:59.884Z,16.60
2019-05-20T11:54:59.875Z,17.10
2019-05-20T11:55:59.875Z,16.30
2019-05-20T11:56:59.857Z,17.00
2019-05-20T11:58:14.423Z,16.60
2019-05-20T11:59:00.826Z,16.00
2019-05-20T11:59:59.845Z,18.20
2019-05-20T12:00:59.811Z,18.00
2019-05-20T12:02:03.701Z,17.30
2019-05-20T12:02:59.816Z,16.80
2019-05-20T12:03:59.791Z,18.90
2019-05-20T12:04:59.762Z,18.60
2019-05-20T12:05:59.758Z,18.70
2019-05-20T12:06:59.776Z,19.60
2019-05-20T12:07:59.751Z,18.40
2019-05-20T12:08:59.712Z,20.60
2019-05-20T12:09:59.699Z,17.60
2019-05-20T12:10:59.717Z,17.60
2019-05-20T12:11:59.676Z,18.40
2019-05-20T12:12:59.690Z,19.80
2019-05-20T12:13:59.654Z,19.10
2019-05-20T12:14:59.667Z,19.60
2019-05-20T12:15:59.654Z,18.40
2019-05-20T12:16:59.659Z,19.20
2019-05-20T12:17:59.611Z,19.40
2019-05-20T12:18:59.597Z,19.00
2019-05-20T12:19:59.601Z,20.20
2019-05-20T12:20:59.578Z,19.50
2019-05-20T12:21:59.599Z,19.80
2019-05-20T12:22:59.555Z,18.40
2019-05-20T12:23:59.590Z,18.10
2019-05-20T12:24:59.541Z,18.20
2019-05-20T12:25:59.535Z,18.60
2019-05-20T12:26:59.546Z,20.10
2019-05-20T12:27:59.497Z,20.30
2019-05-20T12:28:59.494Z,20.20
2019-05-20T12:29:59.475Z,21.00
2019-05-20T12:30:59.465Z,20.90
2019-05-20T12:32:03.318Z,21.40
2019-05-20T12:33:17.905Z,23.30
2019-05-20T12:34:00.449Z,21.00
2019-05-20T12:34:59.508Z,20.60
2019-05-20T12:35:59.412Z,22.90
2019-05-20T12:36:59.402Z,21.80
2019-05-20T12:37:59.388Z,23.90
2019-05-20T12:38:59.399Z,22.80
2019-05-20T12:40:06.971Z,22.50
2019-05-20T12:41:00.359Z,21.50
2019-05-20T12:41:59.344Z,23.00
2019-05-20T12:42:59.391Z,23.10
2019-05-20T12:44:11.000Z,23.30
2019-05-20T12:45:00.308Z,23.30
2019-05-20T12:45:59.307Z,23.60
2019-05-20T12:46:59.287Z,23.50
2019-05-20T12:47:59.306Z,22.80
2019-05-20T12:48:59.338Z,24.00
2019-05-20T12:49:59.256Z,24.60
2019-05-20T12:50:59.241Z,23.30
2019-05-20T12:51:59.230Z,23.70